sensor_id;sensor_type;location;lat;lon;timestamp;P1;durP1;ratioP1;P2;durP2;ratioP2
40170;SDS011;37650;52.790;18.268;2023-02-15T00:02:20;45.00;;;28.30;;
40170;SDS011;37650;52.790;18.268;2023-02-15T00:05:41;67.40;;;44.30;;
40170;SDS011;37650;52.790;18.268;2023-02-15T00:09:02;89.90;;;65.00;;
40170;SDS011;37650;52.790;18.268;2023-02-15T00:12:23;43.90;;;30.20;;
40170;SDS011;37650;52.790;18.268;2023-02-15T00:15:44;43.00;;;29.70;;
40170;SDS011;37650;52.790;18.268;2023-02-15T00:19:05;37.90;;;26.50;;
40170;SDS011;37650;52.790;18.268;2023-02-15T00:22:28;65.10;;;40.40;;
40170;SDS011;37650;52.790;18.268;2023-02-15T00:25:49;48.00;;;30.70;;
40170;SDS011;37650;52.790;18.268;2023-02-15T00:29:11;52.80;;;31.80;;
40170;SDS011;37650;52.790;18.268;2023-02-15T00:32:33;57.70;;;34.70;;
40170;SDS011;37650;52.790;18.268;2023-02-15T00:35:57;55.00;;;32.60;;
40170;SDS011;37650;52.790;18.268;2023-02-15T00:39:29;73.80;;;49.30;;
40170;SDS011;37650;52.790;18.268;2023-02-15T00:43:06;64.80;;;40.10;;
40170;SDS011;37650;52.790;18.268;2023-02-15T00:46:27;44.10;;;29.40;;
40170;SDS011;37650;52.790;18.268;2023-02-15T00:49:48;40.80;;;27.90;;
40170;SDS011;37650;52.790;18.268;2023-02-15T00:53:09;37.60;;;25.20;;
40170;SDS011;37650;52.790;18.268;2023-02-15T01:00:28;33.60;;;22.80;;
40170;SDS011;37650;52.790;18.268;2023-02-15T01:03:50;37.70;;;25.10;;
40170;SDS011;37650;52.790;18.268;2023-02-15T01:07:11;74.60;;;44.00;;
40170;SDS011;37650;52.790;18.268;2023-02-15T01:10:33;76.80;;;46.50;;
40170;SDS011;37650;52.790;18.268;2023-02-15T01:17:17;82.80;;;46.70;;
40170;SDS011;37650;52.790;18.268;2023-02-15T01:20:39;48.50;;;30.50;;
40170;SDS011;37650;52.790;18.268;2023-02-15T01:24:02;39.20;;;26.80;;
40170;SDS011;37650;52.790;18.268;2023-02-15T01:27:23;34.20;;;23.10;;
40170;SDS011;37650;52.790;18.268;2023-02-15T01:30:44;37.10;;;23.00;;
40170;SDS011;37650;52.790;18.268;2023-02-15T01:34:05;37.40;;;25.20;;
40170;SDS011;37650;52.790;18.268;2023-02-15T01:37:26;33.40;;;23.80;;
40170;SDS011;37650;52.790;18.268;2023-02-15T01:40:47;39.00;;;25.30;;
40170;SDS011;37650;52.790;18.268;2023-02-15T01:48:20;38.20;;;26.00;;
40170;SDS011;37650;52.790;18.268;2023-02-15T01:51:44;39.60;;;26.00;;
40170;SDS011;37650;52.790;18.268;2023-02-15T01:55:07;34.80;;;23.50;;
40170;SDS011;37650;52.790;18.268;2023-02-15T01:58:29;43.70;;;29.00;;
40170;SDS011;37650;52.790;18.268;2023-02-15T02:01:53;36.30;;;24.30;;
40170;SDS011;37650;52.790;18.268;2023-02-15T02:05:18;42.20;;;28.10;;
40170;SDS011;37650;52.790;18.268;2023-02-15T02:08:39;48.40;;;28.70;;
40170;SDS011;37650;52.790;18.268;2023-02-15T02:12:03;51.70;;;30.40;;
40170;SDS011;37650;52.790;18.268;2023-02-15T02:15:29;54.50;;;33.50;;
40170;SDS011;37650;52.790;18.268;2023-02-15T02:41:17;50.90;;;30.90;;
40170;SDS011;37650;52.790;18.268;2023-02-15T02:44:47;47.10;;;30.90;;
40170;SDS011;37650;52.790;18.268;2023-02-15T02:48:24;47.50;;;32.50;;
40170;SDS011;37650;52.790;18.268;2023-02-15T02:51:57;50.80;;;32.20;;
40170;SDS011;37650;52.790;18.268;2023-02-15T03:02:29;55.70;;;34.90;;
40170;SDS011;37650;52.790;18.268;2023-02-15T03:05:56;51.60;;;33.60;;
40170;SDS011;37650;52.790;18.268;2023-02-15T03:12:45;50.50;;;33.30;;
40170;SDS011;37650;52.790;18.268;2023-02-15T03:16:07;53.40;;;35.30;;
40170;SDS011;37650;52.790;18.268;2023-02-15T03:19:49;54.10;;;35.40;;
40170;SDS011;37650;52.790;18.268;2023-02-15T03:23:14;55.30;;;36.00;;
40170;SDS011;37650;52.790;18.268;2023-02-15T03:26:38;55.90;;;35.10;;
40170;SDS011;37650;52.790;18.268;2023-02-15T03:30:04;54.70;;;37.00;;
40170;SDS011;37650;52.790;18.268;2023-02-15T03:33:27;56.20;;;36.30;;
40170;SDS011;37650;52.790;18.268;2023-02-15T03:36:55;54.00;;;32.40;;
40170;SDS011;37650;52.790;18.268;2023-02-15T03:40:40;52.30;;;32.80;;
40170;SDS011;37650;52.790;18.268;2023-02-15T03:44:30;58.90;;;36.00;;
40170;SDS011;37650;52.790;18.268;2023-02-15T03:47:53;58.50;;;38.10;;
40170;SDS011;37650;52.790;18.268;2023-02-15T03:51:18;47.60;;;33.30;;
40170;SDS011;37650;52.790;18.268;2023-02-15T03:54:55;50.00;;;32.80;;
40170;SDS011;37650;52.790;18.268;2023-02-15T03:58:17;52.50;;;36.30;;
40170;SDS011;37650;52.790;18.268;2023-02-15T04:02:20;53.70;;;35.70;;
40170;SDS011;37650;52.790;18.268;2023-02-15T04:05:43;53.80;;;36.70;;
40170;SDS011;37650;52.790;18.268;2023-02-15T04:09:05;57.00;;;36.10;;
40170;SDS011;37650;52.790;18.268;2023-02-15T04:12:44;49.10;;;34.60;;
40170;SDS011;37650;52.790;18.268;2023-02-15T04:16:05;52.80;;;36.30;;
40170;SDS011;37650;52.790;18.268;2023-02-15T04:19:27;60.10;;;38.60;;
40170;SDS011;37650;52.790;18.268;2023-02-15T04:23:06;50.00;;;33.70;;
40170;SDS011;37650;52.790;18.268;2023-02-15T04:26:46;47.40;;;31.10;;
40170;SDS011;37650;52.790;18.268;2023-02-15T04:30:13;51.10;;;33.90;;
40170;SDS011;37650;52.790;18.268;2023-02-15T04:33:36;52.80;;;35.70;;
40170;SDS011;37650;52.790;18.268;2023-02-15T04:36:58;49.90;;;33.50;;
40170;SDS011;37650;52.790;18.268;2023-02-15T04:40:19;46.70;;;34.30;;
40170;SDS011;37650;52.790;18.268;2023-02-15T04:43:40;51.90;;;35.00;;
40170;SDS011;37650;52.790;18.268;2023-02-15T04:47:01;46.80;;;35.50;;
40170;SDS011;37650;52.790;18.268;2023-02-15T04:50:22;57.30;;;39.60;;
40170;SDS011;37650;52.790;18.268;2023-02-15T04:53:43;59.40;;;41.30;;
40170;SDS011;37650;52.790;18.268;2023-02-15T04:57:04;84.10;;;55.60;;
40170;SDS011;37650;52.790;18.268;2023-02-15T05:00:26;165.40;;;107.30;;
40170;SDS011;37650;52.790;18.268;2023-02-15T05:03:48;74.90;;;54.10;;
40170;SDS011;37650;52.790;18.268;2023-02-15T05:07:09;86.90;;;58.70;;
40170;SDS011;37650;52.790;18.268;2023-02-15T05:10:30;104.20;;;67.60;;
40170;SDS011;37650;52.790;18.268;2023-02-15T05:13:51;106.10;;;65.10;;
40170;SDS011;37650;52.790;18.268;2023-02-15T05:17:12;61.70;;;40.80;;
40170;SDS011;37650;52.790;18.268;2023-02-15T05:20:33;55.40;;;38.80;;
40170;SDS011;37650;52.790;18.268;2023-02-15T05:23:54;53.50;;;36.10;;
40170;SDS011;37650;52.790;18.268;2023-02-15T05:27:15;52.50;;;37.30;;
40170;SDS011;37650;52.790;18.268;2023-02-15T05:34:27;59.10;;;40.30;;
40170;SDS011;37650;52.790;18.268;2023-02-15T05:37:48;55.70;;;36.90;;
40170;SDS011;37650;52.790;18.268;2023-02-15T05:41:10;51.70;;;35.70;;
40170;SDS011;37650;52.790;18.268;2023-02-15T05:47:52;54.40;;;37.20;;
40170;SDS011;37650;52.790;18.268;2023-02-15T05:51:13;52.90;;;35.80;;
40170;SDS011;37650;52.790;18.268;2023-02-15T05:54:35;47.20;;;34.10;;
40170;SDS011;37650;52.790;18.268;2023-02-15T05:57:57;51.60;;;34.90;;
40170;SDS011;37650;52.790;18.268;2023-02-15T06:01:18;52.30;;;36.40;;
40170;SDS011;37650;52.790;18.268;2023-02-15T06:04:42;52.20;;;35.30;;
40170;SDS011;37650;52.790;18.268;2023-02-15T06:08:03;53.60;;;36.40;;
40170;SDS011;37650;52.790;18.268;2023-02-15T06:11:24;51.10;;;35.60;;
40170;SDS011;37650;52.790;18.268;2023-02-15T06:14:45;55.90;;;37.60;;
40170;SDS011;37650;52.790;18.268;2023-02-15T06:18:11;50.40;;;35.50;;
40170;SDS011;37650;52.790;18.268;2023-02-15T06:22:01;57.40;;;37.80;;
40170;SDS011;37650;52.790;18.268;2023-02-15T06:25:22;45.80;;;33.70;;
40170;SDS011;37650;52.790;18.268;2023-02-15T06:28:43;47.40;;;35.30;;
40170;SDS011;37650;52.790;18.268;2023-02-15T06:32:04;54.50;;;37.70;;
40170;SDS011;37650;52.790;18.268;2023-02-15T06:35:25;43.60;;;32.70;;
40170;SDS011;37650;52.790;18.268;2023-02-15T06:38:46;44.10;;;32.00;;
40170;SDS011;37650;52.790;18.268;2023-02-15T06:42:07;51.60;;;35.50;;
40170;SDS011;37650;52.790;18.268;2023-02-15T06:45:28;43.00;;;31.80;;
40170;SDS011;37650;52.790;18.268;2023-02-15T06:48:49;46.50;;;32.80;;
40170;SDS011;37650;52.790;18.268;2023-02-15T06:52:11;76.30;;;48.50;;
40170;SDS011;37650;52.790;18.268;2023-02-15T06:55:33;81.50;;;51.80;;
40170;SDS011;37650;52.790;18.268;2023-02-15T06:58:54;72.80;;;49.00;;
40170;SDS011;37650;52.790;18.268;2023-02-15T07:02:17;80.20;;;47.80;;
40170;SDS011;37650;52.790;18.268;2023-02-15T07:05:38;56.10;;;41.00;;
40170;SDS011;37650;52.790;18.268;2023-02-15T07:08:59;58.70;;;41.40;;
40170;SDS011;37650;52.790;18.268;2023-02-15T07:12:20;59.40;;;41.30;;
40170;SDS011;37650;52.790;18.268;2023-02-15T07:15:59;53.70;;;38.40;;
40170;SDS011;37650;52.790;18.268;2023-02-15T07:19:20;53.60;;;37.10;;
40170;SDS011;37650;52.790;18.268;2023-02-15T07:22:42;54.00;;;39.60;;
40170;SDS011;37650;52.790;18.268;2023-02-15T07:26:04;62.00;;;40.60;;
40170;SDS011;37650;52.790;18.268;2023-02-15T07:29:27;62.50;;;38.90;;
40170;SDS011;37650;52.790;18.268;2023-02-15T07:32:48;73.40;;;47.50;;
40170;SDS011;37650;52.790;18.268;2023-02-15T07:36:28;62.80;;;40.90;;
40170;SDS011;37650;52.790;18.268;2023-02-15T07:39:49;66.50;;;42.00;;
40170;SDS011;37650;52.790;18.268;2023-02-15T07:43:10;63.80;;;39.70;;
40170;SDS011;37650;52.790;18.268;2023-02-15T07:46:32;65.10;;;43.70;;
40170;SDS011;37650;52.790;18.268;2023-02-15T07:49:53;71.60;;;43.70;;
40170;SDS011;37650;52.790;18.268;2023-02-15T07:53:39;52.90;;;35.30;;
40170;SDS011;37650;52.790;18.268;2023-02-15T07:57:01;68.30;;;43.80;;
40170;SDS011;37650;52.790;18.268;2023-02-15T08:00:22;53.50;;;38.00;;
40170;SDS011;37650;52.790;18.268;2023-02-15T08:03:44;61.40;;;39.60;;
40170;SDS011;37650;52.790;18.268;2023-02-15T08:07:05;124.80;;;62.40;;
40170;SDS011;37650;52.790;18.268;2023-02-15T08:10:27;62.70;;;40.00;;
40170;SDS011;37650;52.790;18.268;2023-02-15T08:14:09;58.60;;;39.10;;
40170;SDS011;37650;52.790;18.268;2023-02-15T08:17:35;76.30;;;44.10;;
40170;SDS011;37650;52.790;18.268;2023-02-15T08:20:57;60.70;;;40.80;;
40170;SDS011;37650;52.790;18.268;2023-02-15T08:24:21;54.60;;;35.50;;
40170;SDS011;37650;52.790;18.268;2023-02-15T08:27:43;56.80;;;35.40;;
40170;SDS011;37650;52.790;18.268;2023-02-15T08:31:08;49.10;;;36.10;;
40170;SDS011;37650;52.790;18.268;2023-02-15T08:34:32;72.20;;;50.80;;
40170;SDS011;37650;52.790;18.268;2023-02-15T08:37:57;107.00;;;66.00;;
40170;SDS011;37650;52.790;18.268;2023-02-15T08:41:22;87.20;;;57.70;;
40170;SDS011;37650;52.790;18.268;2023-02-15T08:44:45;65.50;;;45.80;;
40170;SDS011;37650;52.790;18.268;2023-02-15T08:48:06;49.20;;;36.70;;
40170;SDS011;37650;52.790;18.268;2023-02-15T08:51:29;39.30;;;29.10;;
40170;SDS011;37650;52.790;18.268;2023-02-15T08:54:52;42.90;;;32.80;;
40170;SDS011;37650;52.790;18.268;2023-02-15T08:58:13;38.80;;;29.80;;
40170;SDS011;37650;52.790;18.268;2023-02-15T09:01:34;38.30;;;31.10;;
40170;SDS011;37650;52.790;18.268;2023-02-15T09:04:55;52.90;;;38.50;;
40170;SDS011;37650;52.790;18.268;2023-02-15T09:08:16;54.60;;;38.40;;
40170;SDS011;37650;52.790;18.268;2023-02-15T09:11:41;47.80;;;35.60;;
40170;SDS011;37650;52.790;18.268;2023-02-15T09:15:04;36.50;;;31.40;;
40170;SDS011;37650;52.790;18.268;2023-02-15T09:18:26;46.00;;;33.60;;
40170;SDS011;37650;52.790;18.268;2023-02-15T09:21:47;49.60;;;36.60;;
40170;SDS011;37650;52.790;18.268;2023-02-15T09:25:09;41.80;;;31.00;;
40170;SDS011;37650;52.790;18.268;2023-02-15T09:28:29;42.50;;;34.10;;
40170;SDS011;37650;52.790;18.268;2023-02-15T09:31:52;36.60;;;28.70;;
40170;SDS011;37650;52.790;18.268;2023-02-15T09:35:13;38.10;;;31.50;;
40170;SDS011;37650;52.790;18.268;2023-02-15T09:38:34;39.10;;;27.80;;
40170;SDS011;37650;52.790;18.268;2023-02-15T09:45:31;54.70;;;37.00;;
40170;SDS011;37650;52.790;18.268;2023-02-15T09:53:03;40.30;;;32.70;;
40170;SDS011;37650;52.790;18.268;2023-02-15T09:56:39;41.00;;;32.60;;
40170;SDS011;37650;52.790;18.268;2023-02-15T10:14:56;57.10;;;39.80;;
40170;SDS011;37650;52.790;18.268;2023-02-15T10:22:20;35.60;;;27.10;;
40170;SDS011;37650;52.790;18.268;2023-02-15T10:29:37;102.20;;;66.30;;
40170;SDS011;37650;52.790;18.268;2023-02-15T10:33:00;43.80;;;28.50;;
40170;SDS011;37650;52.790;18.268;2023-02-15T10:54:14;58.50;;;42.60;;
40170;SDS011;37650;52.790;18.268;2023-02-15T10:57:59;51.00;;;37.10;;
40170;SDS011;37650;52.790;18.268;2023-02-15T11:01:37;56.40;;;41.40;;
40170;SDS011;37650;52.790;18.268;2023-02-15T11:08:59;68.40;;;48.20;;
40170;SDS011;37650;52.790;18.268;2023-02-15T11:12:25;52.40;;;36.30;;
40170;SDS011;37650;52.790;18.268;2023-02-15T11:15:51;49.40;;;37.80;;
40170;SDS011;37650;52.790;18.268;2023-02-15T11:19:27;52.90;;;38.30;;
40170;SDS011;37650;52.790;18.268;2023-02-15T11:22:52;77.30;;;52.20;;
40170;SDS011;37650;52.790;18.268;2023-02-15T11:26:19;57.10;;;42.20;;
40170;SDS011;37650;52.790;18.268;2023-02-15T11:29:44;67.10;;;47.50;;
40170;SDS011;37650;52.790;18.268;2023-02-15T11:33:20;52.30;;;36.30;;
40170;SDS011;37650;52.790;18.268;2023-02-15T11:36:55;61.80;;;38.50;;
40170;SDS011;37650;52.790;18.268;2023-02-15T11:40:22;47.50;;;32.60;;
40170;SDS011;37650;52.790;18.268;2023-02-15T11:47:28;68.50;;;41.70;;
40170;SDS011;37650;52.790;18.268;2023-02-15T11:50:49;60.90;;;37.40;;
40170;SDS011;37650;52.790;18.268;2023-02-15T11:54:10;47.00;;;34.30;;
40170;SDS011;37650;52.790;18.268;2023-02-15T11:57:33;84.70;;;49.30;;
40170;SDS011;37650;52.790;18.268;2023-02-15T12:01:08;49.50;;;30.70;;
40170;SDS011;37650;52.790;18.268;2023-02-15T12:04:39;65.10;;;41.10;;
40170;SDS011;37650;52.790;18.268;2023-02-15T12:08:09;62.50;;;42.40;;
40170;SDS011;37650;52.790;18.268;2023-02-15T12:11:36;52.90;;;36.20;;
40170;SDS011;37650;52.790;18.268;2023-02-15T12:15:09;50.20;;;30.50;;
40170;SDS011;37650;52.790;18.268;2023-02-15T12:21:55;55.90;;;39.20;;
40170;SDS011;37650;52.790;18.268;2023-02-15T12:28:57;46.20;;;33.40;;
40170;SDS011;37650;52.790;18.268;2023-02-15T12:32:23;50.90;;;37.40;;
40170;SDS011;37650;52.790;18.268;2023-02-15T12:35:46;58.10;;;39.40;;
40170;SDS011;37650;52.790;18.268;2023-02-15T12:42:41;54.70;;;39.30;;
40170;SDS011;37650;52.790;18.268;2023-02-15T12:46:23;51.50;;;38.20;;
40170;SDS011;37650;52.790;18.268;2023-02-15T12:53:42;66.80;;;45.50;;
40170;SDS011;37650;52.790;18.268;2023-02-15T12:57:24;64.70;;;41.70;;
40170;SDS011;37650;52.790;18.268;2023-02-15T13:00:46;49.20;;;32.90;;
40170;SDS011;37650;52.790;18.268;2023-02-15T13:04:21;49.70;;;37.60;;
40170;SDS011;37650;52.790;18.268;2023-02-15T13:07:47;49.30;;;34.70;;
40170;SDS011;37650;52.790;18.268;2023-02-15T13:11:11;47.30;;;33.70;;
40170;SDS011;37650;52.790;18.268;2023-02-15T13:14:32;50.00;;;36.70;;
40170;SDS011;37650;52.790;18.268;2023-02-15T13:17:55;49.50;;;36.90;;
40170;SDS011;37650;52.790;18.268;2023-02-15T13:21:20;70.30;;;48.40;;
40170;SDS011;37650;52.790;18.268;2023-02-15T13:24:46;63.70;;;44.30;;
40170;SDS011;37650;52.790;18.268;2023-02-15T13:28:12;50.80;;;38.30;;
40170;SDS011;37650;52.790;18.268;2023-02-15T13:31:36;62.20;;;45.20;;
40170;SDS011;37650;52.790;18.268;2023-02-15T13:34:59;55.80;;;38.40;;
40170;SDS011;37650;52.790;18.268;2023-02-15T13:56:34;46.50;;;34.00;;
40170;SDS011;37650;52.790;18.268;2023-02-15T14:10:52;58.40;;;40.40;;
40170;SDS011;37650;52.790;18.268;2023-02-15T14:21:44;47.20;;;36.70;;
40170;SDS011;37650;52.790;18.268;2023-02-15T14:32:36;54.00;;;39.70;;
40170;SDS011;37650;52.790;18.268;2023-02-15T14:36:02;42.00;;;27.10;;
40170;SDS011;37650;52.790;18.268;2023-02-15T14:39:36;56.20;;;38.60;;
40170;SDS011;37650;52.790;18.268;2023-02-15T14:43:34;51.30;;;35.50;;
40170;SDS011;37650;52.790;18.268;2023-02-15T14:47:11;51.90;;;38.40;;
40170;SDS011;37650;52.790;18.268;2023-02-15T15:00:40;59.90;;;41.00;;
40170;SDS011;37650;52.790;18.268;2023-02-15T15:04:04;62.70;;;43.30;;
40170;SDS011;37650;52.790;18.268;2023-02-15T15:14:51;58.10;;;40.40;;
40170;SDS011;37650;52.790;18.268;2023-02-15T15:22:05;57.80;;;36.90;;
40170;SDS011;37650;52.790;18.268;2023-02-15T15:25:45;98.70;;;56.60;;
40170;SDS011;37650;52.790;18.268;2023-02-15T15:29:16;58.70;;;41.80;;
40170;SDS011;37650;52.790;18.268;2023-02-15T15:48:36;57.10;;;36.00;;
40170;SDS011;37650;52.790;18.268;2023-02-15T15:52:00;60.50;;;38.80;;
40170;SDS011;37650;52.790;18.268;2023-02-15T15:55:25;63.70;;;41.40;;
40170;SDS011;37650;52.790;18.268;2023-02-15T15:58:51;55.00;;;39.60;;
40170;SDS011;37650;52.790;18.268;2023-02-15T16:02:20;61.90;;;45.10;;
40170;SDS011;37650;52.790;18.268;2023-02-15T16:05:44;57.60;;;40.30;;
40170;SDS011;37650;52.790;18.268;2023-02-15T16:09:22;64.10;;;43.80;;
40170;SDS011;37650;52.790;18.268;2023-02-15T16:12:46;70.00;;;49.80;;
40170;SDS011;37650;52.790;18.268;2023-02-15T16:16:15;100.60;;;85.60;;
40170;SDS011;37650;52.790;18.268;2023-02-15T16:19:43;64.60;;;46.40;;
40170;SDS011;37650;52.790;18.268;2023-02-15T16:30:44;60.00;;;40.90;;
40170;SDS011;37650;52.790;18.268;2023-02-15T16:34:09;61.00;;;39.20;;
40170;SDS011;37650;52.790;18.268;2023-02-15T16:37:37;61.60;;;38.90;;
40170;SDS011;37650;52.790;18.268;2023-02-15T16:44:24;68.90;;;42.40;;
40170;SDS011;37650;52.790;18.268;2023-02-15T16:47:46;55.20;;;37.40;;
40170;SDS011;37650;52.790;18.268;2023-02-15T16:51:17;73.20;;;45.20;;
40170;SDS011;37650;52.790;18.268;2023-02-15T16:54:49;74.60;;;50.40;;
40170;SDS011;37650;52.790;18.268;2023-02-15T16:58:19;76.20;;;52.30;;
40170;SDS011;37650;52.790;18.268;2023-02-15T17:01:47;181.70;;;137.60;;
40170;SDS011;37650;52.790;18.268;2023-02-15T17:05:16;170.20;;;107.50;;
40170;SDS011;37650;52.790;18.268;2023-02-15T17:08:44;81.90;;;51.90;;
40170;SDS011;37650;52.790;18.268;2023-02-15T17:12:08;101.10;;;55.30;;
40170;SDS011;37650;52.790;18.268;2023-02-15T17:15:40;88.20;;;50.70;;
40170;SDS011;37650;52.790;18.268;2023-02-15T17:22:51;93.50;;;56.90;;
40170;SDS011;37650;52.790;18.268;2023-02-15T17:29:48;65.10;;;40.10;;
40170;SDS011;37650;52.790;18.268;2023-02-15T17:33:23;55.40;;;36.20;;
40170;SDS011;37650;52.790;18.268;2023-02-15T17:36:59;56.30;;;35.00;;
40170;SDS011;37650;52.790;18.268;2023-02-15T17:40:34;60.60;;;38.10;;
40170;SDS011;37650;52.790;18.268;2023-02-15T17:44:01;54.60;;;35.10;;
40170;SDS011;37650;52.790;18.268;2023-02-15T17:47:24;60.90;;;37.00;;
40170;SDS011;37650;52.790;18.268;2023-02-15T17:50:48;66.30;;;41.60;;
40170;SDS011;37650;52.790;18.268;2023-02-15T17:54:11;63.00;;;37.80;;
40170;SDS011;37650;52.790;18.268;2023-02-15T17:57:52;61.10;;;39.10;;
40170;SDS011;37650;52.790;18.268;2023-02-15T18:01:16;62.30;;;40.60;;
40170;SDS011;37650;52.790;18.268;2023-02-15T18:04:59;70.50;;;44.30;;
40170;SDS011;37650;52.790;18.268;2023-02-15T18:08:47;177.80;;;86.30;;
40170;SDS011;37650;52.790;18.268;2023-02-15T18:12:30;58.60;;;37.60;;
40170;SDS011;37650;52.790;18.268;2023-02-15T18:15:54;67.40;;;41.30;;
40170;SDS011;37650;52.790;18.268;2023-02-15T18:19:21;73.90;;;45.50;;
40170;SDS011;37650;52.790;18.268;2023-02-15T18:22:45;81.00;;;43.90;;
40170;SDS011;37650;52.790;18.268;2023-02-15T18:26:08;134.30;;;62.20;;
40170;SDS011;37650;52.790;18.268;2023-02-15T18:29:33;106.60;;;53.60;;
40170;SDS011;37650;52.790;18.268;2023-02-15T18:32:59;116.10;;;56.00;;
40170;SDS011;37650;52.790;18.268;2023-02-15T18:36:25;169.40;;;75.70;;
40170;SDS011;37650;52.790;18.268;2023-02-15T18:39:56;190.30;;;78.70;;
40170;SDS011;37650;52.790;18.268;2023-02-15T18:43:18;357.80;;;108.00;;
40170;SDS011;37650;52.790;18.268;2023-02-15T18:47:01;433.20;;;187.20;;
40170;SDS011;37650;52.790;18.268;2023-02-15T18:50:28;396.60;;;205.40;;
40170;SDS011;37650;52.790;18.268;2023-02-15T18:54:00;396.10;;;153.70;;
40170;SDS011;37650;52.790;18.268;2023-02-15T18:57:23;433.20;;;200.40;;
40170;SDS011;37650;52.790;18.268;2023-02-15T19:00:47;179.20;;;90.00;;
40170;SDS011;37650;52.790;18.268;2023-02-15T19:04:09;131.80;;;80.10;;
40170;SDS011;37650;52.790;18.268;2023-02-15T19:07:30;589.80;;;179.80;;
40170;SDS011;37650;52.790;18.268;2023-02-15T19:10:55;107.60;;;53.40;;
40170;SDS011;37650;52.790;18.268;2023-02-15T19:14:28;68.60;;;39.60;;
40170;SDS011;37650;52.790;18.268;2023-02-15T19:17:53;70.00;;;41.50;;
40170;SDS011;37650;52.790;18.268;2023-02-15T19:21:18;84.20;;;41.60;;
40170;SDS011;37650;52.790;18.268;2023-02-15T19:24:42;93.50;;;50.30;;
40170;SDS011;37650;52.790;18.268;2023-02-15T19:28:13;98.50;;;55.20;;
40170;SDS011;37650;52.790;18.268;2023-02-15T19:31:41;223.00;;;79.80;;
40170;SDS011;37650;52.790;18.268;2023-02-15T19:35:21;457.00;;;164.10;;
40170;SDS011;37650;52.790;18.268;2023-02-15T19:38:50;282.80;;;97.80;;
40170;SDS011;37650;52.790;18.268;2023-02-15T19:42:18;333.50;;;114.00;;
40170;SDS011;37650;52.790;18.268;2023-02-15T19:45:45;445.50;;;158.10;;
40170;SDS011;37650;52.790;18.268;2023-02-15T19:49:09;446.90;;;159.70;;
40170;SDS011;37650;52.790;18.268;2023-02-15T19:52:32;291.90;;;105.70;;
40170;SDS011;37650;52.790;18.268;2023-02-15T19:55:59;264.70;;;104.90;;
40170;SDS011;37650;52.790;18.268;2023-02-15T19:59:30;227.60;;;102.80;;
40170;SDS011;37650;52.790;18.268;2023-02-15T20:02:57;618.10;;;333.00;;
40170;SDS011;37650;52.790;18.268;2023-02-15T20:06:21;264.50;;;104.90;;
40170;SDS011;37650;52.790;18.268;2023-02-15T20:09:44;177.50;;;88.60;;
40170;SDS011;37650;52.790;18.268;2023-02-15T20:13:17;87.90;;;53.10;;
40170;SDS011;37650;52.790;18.268;2023-02-15T20:16:42;241.60;;;97.40;;
40170;SDS011;37650;52.790;18.268;2023-02-15T20:20:10;242.90;;;90.80;;
40170;SDS011;37650;52.790;18.268;2023-02-15T20:23:35;332.60;;;120.70;;
40170;SDS011;37650;52.790;18.268;2023-02-15T20:26:57;295.10;;;112.50;;
40170;SDS011;37650;52.790;18.268;2023-02-15T20:30:24;210.40;;;85.60;;
40170;SDS011;37650;52.790;18.268;2023-02-15T20:33:48;180.50;;;78.50;;
40170;SDS011;37650;52.790;18.268;2023-02-15T20:37:21;79.90;;;45.80;;
40170;SDS011;37650;52.790;18.268;2023-02-15T20:40:50;72.90;;;39.40;;
40170;SDS011;37650;52.790;18.268;2023-02-15T20:44:32;72.10;;;39.60;;
40170;SDS011;37650;52.790;18.268;2023-02-15T20:47:57;72.50;;;42.10;;
40170;SDS011;37650;52.790;18.268;2023-02-15T20:51:26;70.40;;;38.20;;
40170;SDS011;37650;52.790;18.268;2023-02-15T20:54:48;76.80;;;43.90;;
40170;SDS011;37650;52.790;18.268;2023-02-15T20:58:18;67.10;;;40.70;;
40170;SDS011;37650;52.790;18.268;2023-02-15T21:01:48;62.80;;;38.90;;
40170;SDS011;37650;52.790;18.268;2023-02-15T21:05:17;53.30;;;33.30;;
40170;SDS011;37650;52.790;18.268;2023-02-15T21:08:42;62.40;;;35.00;;
40170;SDS011;37650;52.790;18.268;2023-02-15T21:12:07;71.30;;;39.60;;
40170;SDS011;37650;52.790;18.268;2023-02-15T21:15:38;71.90;;;40.10;;
40170;SDS011;37650;52.790;18.268;2023-02-15T21:19:01;62.90;;;35.80;;
40170;SDS011;37650;52.790;18.268;2023-02-15T21:22:23;65.50;;;38.40;;
40170;SDS011;37650;52.790;18.268;2023-02-15T21:25:45;64.40;;;36.60;;
40170;SDS011;37650;52.790;18.268;2023-02-15T21:29:17;67.00;;;36.70;;
40170;SDS011;37650;52.790;18.268;2023-02-15T21:32:41;77.60;;;44.40;;
40170;SDS011;37650;52.790;18.268;2023-02-15T21:36:08;76.20;;;43.10;;
40170;SDS011;37650;52.790;18.268;2023-02-15T21:39:35;75.00;;;42.80;;
40170;SDS011;37650;52.790;18.268;2023-02-15T21:42:57;76.50;;;43.80;;
40170;SDS011;37650;52.790;18.268;2023-02-15T21:46:38;77.60;;;43.80;;
40170;SDS011;37650;52.790;18.268;2023-02-15T21:54:16;72.30;;;43.00;;
40170;SDS011;37650;52.790;18.268;2023-02-15T21:57:39;74.20;;;44.20;;
40170;SDS011;37650;52.790;18.268;2023-02-15T22:01:01;75.20;;;40.50;;
40170;SDS011;37650;52.790;18.268;2023-02-15T22:07:45;85.70;;;47.00;;
40170;SDS011;37650;52.790;18.268;2023-02-15T22:11:16;76.60;;;44.10;;
40170;SDS011;37650;52.790;18.268;2023-02-15T22:14:43;67.00;;;39.70;;
40170;SDS011;37650;52.790;18.268;2023-02-15T22:18:19;70.80;;;41.20;;
40170;SDS011;37650;52.790;18.268;2023-02-15T22:21:42;74.30;;;41.90;;
40170;SDS011;37650;52.790;18.268;2023-02-15T22:25:03;68.80;;;42.10;;
40170;SDS011;37650;52.790;18.268;2023-02-15T22:28:32;68.30;;;41.00;;
40170;SDS011;37650;52.790;18.268;2023-02-15T22:32:00;82.00;;;47.80;;
40170;SDS011;37650;52.790;18.268;2023-02-15T22:35:23;72.40;;;43.40;;
40170;SDS011;37650;52.790;18.268;2023-02-15T22:38:55;86.40;;;49.10;;
40170;SDS011;37650;52.790;18.268;2023-02-15T22:42:21;87.90;;;49.20;;
40170;SDS011;37650;52.790;18.268;2023-02-15T22:45:45;76.10;;;44.60;;
40170;SDS011;37650;52.790;18.268;2023-02-15T22:49:11;79.30;;;45.40;;
40170;SDS011;37650;52.790;18.268;2023-02-15T22:57:26;89.50;;;47.70;;
40170;SDS011;37650;52.790;18.268;2023-02-15T23:00:50;78.90;;;45.80;;
40170;SDS011;37650;52.790;18.268;2023-02-15T23:04:20;82.60;;;48.10;;
40170;SDS011;37650;52.790;18.268;2023-02-15T23:07:45;81.90;;;45.80;;
40170;SDS011;37650;52.790;18.268;2023-02-15T23:11:07;91.20;;;51.40;;
40170;SDS011;37650;52.790;18.268;2023-02-15T23:14:33;108.10;;;56.00;;
40170;SDS011;37650;52.790;18.268;2023-02-15T23:18:00;104.10;;;54.30;;
40170;SDS011;37650;52.790;18.268;2023-02-15T23:21:45;106.50;;;54.50;;
40170;SDS011;37650;52.790;18.268;2023-02-15T23:25:07;105.40;;;53.20;;
40170;SDS011;37650;52.790;18.268;2023-02-15T23:28:34;109.20;;;52.10;;
40170;SDS011;37650;52.790;18.268;2023-02-15T23:31:57;96.70;;;48.20;;
40170;SDS011;37650;52.790;18.268;2023-02-15T23:35:18;103.10;;;51.10;;
40170;SDS011;37650;52.790;18.268;2023-02-15T23:38:40;103.80;;;56.00;;